METAR Data
IDs: Format: Raw Decoded Include TAF

Data at: 2155 UTC 22 Sep 2020

KFLD 222053Z AUTO 23005KT 10SM CLR 26/15 A3007 RMK AO2 SLP179 T02610150 56019
KFLD 221953Z AUTO 23006KT 10SM CLR 26/16 A3008 RMK AO2 SLP183 T02560156
KFLD 221853Z AUTO 23005KT 10SM CLR 26/15 A3010 RMK AO2 SLP190 T02560150
KFLD 221753Z AUTO 29004KT 10SM CLR 24/15 A3012 RMK AO2 SLP198 T02440150 10250 20150 56017
KFLD 221653Z AUTO 25005KT 10SM CLR 23/14 A3014 RMK AO2 SLP204 T02280144
KFLD 221553Z AUTO 27009KT 10SM CLR 22/13 A3016 RMK AO2 SLP210 T02170133
KFLD 221453Z AUTO 23007KT 10SM CLR 19/13 A3017 RMK AO2 SLP217 T01890128 53001
KFLD 221353Z AUTO 21009KT 10SM CLR 17/12 A3017 RMK AO2 SLP216 T01670117
KFLD 221253Z AUTO 21006KT 10SM CLR 15/11 A3017 RMK AO2 SLP219 T01500111
KFLD 221153Z AUTO 22004KT 10SM FEW055 FEW080 SCT110 15/11 A3017 RMK AO2 RAB30E51 SLP217 P0003 60004 70004 T01500111 10172 20144 55005
KFLD 221053Z AUTO 20005KT 10SM CLR 16/11 A3017 RMK AO2 SLP214 T01560106
KFLD 220953Z AUTO 21005KT 10SM CLR 15/11 A3018 RMK AO2 SLP217 T01500106
KFLD 220853Z AUTO 21005KT 10SM SCT110 15/10 A3019 RMK AO2 RAB0755E12 SLP220 P0000 60001 T01500100 58008
KFLD 220753Z AUTO 21004KT 10SM OVC110 16/10 A3020 RMK AO2 RAB18E29 SLP226 P0001 T01560100
KFLD 220653Z AUTO 20006KT 10SM CLR 16/09 A3021 RMK AO2 SLP228 T01560089
KFLD 220553Z AUTO 24003KT 10SM FEW075 FEW110 17/08 A3021 RMK AO2 SLP228 T01720083 10172 20139 402390094 53002
KFLD 220453Z AUTO 19005KT 10SM CLR 16/09 A3021 RMK AO2 SLP229 T01560094
KFLD 220353Z AUTO 18007KT 10SM CLR 16/10 A3020 RMK AO2 SLP227 T01560100
KFLD 220253Z AUTO 19003KT 10SM CLR 16/10 A3020 RMK AO2 SLP227 T01560100 51001
KFLD 220153Z AUTO 16006KT 10SM CLR 14/09 A3020 RMK AO2 SLP229 T01390094
KFLD 220053Z AUTO 18007KT 10SM CLR 14/09 A3021 RMK AO2 SLP231 T01440094
KFLD 212353Z AUTO 17006KT 10SM CLR 17/10 A3020 RMK AO2 SLP229 T01670100 10239 20167 56013
KFLD 212253Z AUTO 17007KT 10SM CLR 21/09 A3021 RMK AO2 SLP230 T02060089
KFLD 212153Z AUTO 18010KT 10SM CLR 23/08 A3022 RMK AO2 SLP232 T02280078
KFLD 212053Z AUTO 20009KT 10SM CLR 23/07 A3024 RMK AO2 SLP239 T02330067 56022
KFLD 211953Z AUTO 18011G19KT 10SM CLR 23/07 A3025 RMK AO2 SLP244 T02330067
KFLD 211853Z AUTO 21010KT 10SM CLR 23/07 A3028 RMK AO2 SLP254 T02330072
KFLD 211753Z AUTO 21011G20KT 10SM CLR 22/07 A3031 RMK AO2 SLP262 T02220067 10222 20094 58014
KFLD 211653Z AUTO 21011G19KT 10SM CLR 21/06 A3033 RMK AO2 SLP271 T02060061
KFLD 211553Z AUTO 20009G19KT 10SM CLR 19/06 A3034 RMK AO2 SLP274 T01940056
KFLD 211453Z AUTO 21010G19KT 10SM CLR 18/05 A3035 RMK AO2 SLP278 T01830050 50001
KFLD 211353Z AUTO 17006KT 10SM CLR 14/06 A3036 RMK AO2 SLP281 T01440061
KFLD 211253Z AUTO 18006KT 10SM CLR 12/06 A3035 RMK AO2 SLP281 T01170061
KFLD 211153Z AUTO 17007KT 10SM CLR 10/06 A3035 RMK AO2 SLP278 T01000056 10133 20100 53003
KFLD 211053Z AUTO 19009KT 10SM CLR 12/06 A3033 RMK AO2 SLP272 T01220056